Aérodrome :
LOGIN :

S'inscrire | Disclaimer

   EN    FR    IT 

 










Légende :    VFR   VFR Marginal   IFR   IFR Intensif   IFR Très Intensif
Visi : 
Plafond : 
>= 8 km
>= 3000ft
5 à 8 km
1000 à 3000 ft
1500m à 5 km
500 à 1000 ft
800 à 1500m
200 à 500 ft
< 800m
< 200 ft
Symboles :   Orages  Brouillard  Fortes neiges  Fortes précipitations  Vent > 20 kt
SIGMETs :   Divers  Orages  Givrage  Turbulence  Onde Orograph.  Cendres Volcan.







- Altitude de l'aérodrome : 697 ft
- Code IATA : PEG


LIRZ - San Edigio Perugia

DERNIER METAR :
  • 192350Z AUTO VRB02KT 9999 NCD 19/16 Q1016

METARs EXPIRÉS :
  • 192250Z AUTO 01004KT 9999 NCD 20/16 Q1016
  • 192150Z AUTO 27004KT 9999 NCD 20/17 Q1016

TAF TAF LIRZ
Valide du 20 à 00h jusqu'au 21 à 00h UTC


192300Z 2000/2024 03010KT 9999 SCT030
TEMPO 2013/2016 4000 TSRA
Pas de NOTAMs connus pour ce terrain.
2 SIGMETs publiés pour la FIR Roma (LIRR) :
 
Turbulence forte
LIRR SIGMET 8 VALID 192300/200200 LIIB
LIRR ROMA FIR SEV TURB FCST WI N3921 E01124 - N3752 E01038 - N3728 E01126 - N3631 E01130 - N3629 E01532 - N3922 E01259 - N3921 E01124 FL280/360 MOV E WKN=
Orages noyés dans la masse
LIRR SIGMET 7 VALID 192300/200200 LIIB
LIRR ROMA FIR EMBD TS FCST WI N3823 E00928 - N4012 E00949 - N4030 E01245 - N3918 E01545 - N3628 E01732 - N3630 E01131 - N3731 E01128 - N3823 E00928 TOP ABV FL340 MOV E NC=



MET'MAP, la Météo Aéronautique d'un coup d'oeil ! - Copyright ORBIFLY Décembre 2007 - Disclaimer

ORBIFLY MET'MAP TEAM :

Programmation & Développement : Alexandra Zaïnal
Conception & Développement : Baudouin d'Aumeries
Co-Programmation & Développement : Marc-Olivier Méhu
Soutien technique & logistique : Manuel Goepfert

Contact : metmap@orbifly.com




SOURCES & CREDITS :

   NOAA